sensor_id;sensor_type;location;lat;lon;timestamp;pressure;altitude;pressure_sealevel;temperature;humidity
81686;BME280;71102;50.960;6.888;2024-01-11T00:02:16;102735.19;;;-4.53;72.77
81686;BME280;71102;50.960;6.888;2024-01-11T00:04:41;102728.94;;;-4.55;72.21
81686;BME280;71102;50.960;6.888;2024-01-11T00:07:07;102732.28;;;-4.56;73.15
81686;BME280;71102;50.960;6.888;2024-01-11T00:09:32;102733.66;;;-4.60;73.41
81686;BME280;71102;50.960;6.888;2024-01-11T00:11:57;102736.53;;;-4.57;73.04
81686;BME280;71102;50.960;6.888;2024-01-11T00:14:23;102735.91;;;-4.54;73.39
81686;BME280;71102;50.960;6.888;2024-01-11T00:16:48;102740.19;;;-4.55;73.95
81686;BME280;71102;50.960;6.888;2024-01-11T00:19:13;102738.69;;;-4.61;72.92
81686;BME280;71102;50.960;6.888;2024-01-11T00:21:39;102734.75;;;-4.66;71.89
81686;BME280;71102;50.960;6.888;2024-01-11T00:24:04;102728.97;;;-4.72;72.25
81686;BME280;71102;50.960;6.888;2024-01-11T00:26:29;102732.34;;;-4.73;72.22
81686;BME280;71102;50.960;6.888;2024-01-11T00:28:55;102729.47;;;-4.76;71.86
81686;BME280;71102;50.960;6.888;2024-01-11T00:31:20;102732.03;;;-4.76;72.62
81686;BME280;71102;50.960;6.888;2024-01-11T00:33:45;102735.66;;;-4.74;72.94
81686;BME280;71102;50.960;6.888;2024-01-11T00:36:17;102742.06;;;-4.71;73.70
81686;BME280;71102;50.960;6.888;2024-01-11T00:38:42;102738.84;;;-4.68;73.46
81686;BME280;71102;50.960;6.888;2024-01-11T00:41:08;102730.94;;;-4.70;74.12
81686;BME280;71102;50.960;6.888;2024-01-11T00:43:33;102728.53;;;-4.77;74.66
81686;BME280;71102;50.960;6.888;2024-01-11T00:45:58;102738.72;;;-4.78;74.76
81686;BME280;71102;50.960;6.888;2024-01-11T00:48:23;102741.78;;;-4.82;74.17
81686;BME280;71102;50.960;6.888;2024-01-11T00:50:49;102739.97;;;-4.83;73.73
81686;BME280;71102;50.960;6.888;2024-01-11T00:53:14;102740.56;;;-4.86;72.73
81686;BME280;71102;50.960;6.888;2024-01-11T00:55:40;102742.09;;;-4.88;72.20
81686;BME280;71102;50.960;6.888;2024-01-11T00:58:05;102746.19;;;-4.90;71.94
81686;BME280;71102;50.960;6.888;2024-01-11T01:00:30;102745.16;;;-4.92;72.21
81686;BME280;71102;50.960;6.888;2024-01-11T01:02:56;102746.97;;;-4.91;72.92
81686;BME280;71102;50.960;6.888;2024-01-11T01:05:21;102743.44;;;-4.91;72.78
81686;BME280;71102;50.960;6.888;2024-01-11T01:07:46;102740.56;;;-4.94;73.01
81686;BME280;71102;50.960;6.888;2024-01-11T01:10:12;102740.16;;;-4.99;73.28
81686;BME280;71102;50.960;6.888;2024-01-11T01:12:37;102745.63;;;-4.96;73.18
81686;BME280;71102;50.960;6.888;2024-01-11T01:15:02;102746.97;;;-4.99;72.49
81686;BME280;71102;50.960;6.888;2024-01-11T01:17:28;102744.09;;;-5.02;72.47
81686;BME280;71102;50.960;6.888;2024-01-11T01:19:53;102742.13;;;-5.05;72.70
81686;BME280;71102;50.960;6.888;2024-01-11T01:22:18;102743.63;;;-5.07;72.91
81686;BME280;71102;50.960;6.888;2024-01-11T01:24:44;102746.06;;;-5.08;73.43
81686;BME280;71102;50.960;6.888;2024-01-11T01:27:09;102740.16;;;-5.07;74.30
81686;BME280;71102;50.960;6.888;2024-01-11T01:29:34;102752.47;;;-5.05;73.53
81686;BME280;71102;50.960;6.888;2024-01-11T01:32:00;102753.38;;;-5.04;74.00
81686;BME280;71102;50.960;6.888;2024-01-11T01:34:25;102759.28;;;-5.05;73.93
81686;BME280;71102;50.960;6.888;2024-01-11T01:36:50;102748.63;;;-5.08;73.70
81686;BME280;71102;50.960;6.888;2024-01-11T01:39:16;102760.22;;;-5.13;72.96
81686;BME280;71102;50.960;6.888;2024-01-11T01:41:41;102762.47;;;-5.16;72.96
81686;BME280;71102;50.960;6.888;2024-01-11T01:44:06;102760.38;;;-5.20;73.05
81686;BME280;71102;50.960;6.888;2024-01-11T01:46:32;102757.16;;;-5.26;72.70
81686;BME280;71102;50.960;6.888;2024-01-11T01:48:58;102755.19;;;-5.29;73.14
81686;BME280;71102;50.960;6.888;2024-01-11T01:51:24;102756.53;;;-5.32;73.30
81686;BME280;71102;50.960;6.888;2024-01-11T01:53:52;102763.97;;;-5.36;73.09
81686;BME280;71102;50.960;6.888;2024-01-11T01:56:19;102760.03;;;-5.41;72.67
81686;BME280;71102;50.960;6.888;2024-01-11T01:58:45;102769.16;;;-5.44;72.85
81686;BME280;71102;50.960;6.888;2024-01-11T02:01:11;102758.81;;;-5.44;73.27
81686;BME280;71102;50.960;6.888;2024-01-11T02:03:37;102773.41;;;-5.45;72.96
81686;BME280;71102;50.960;6.888;2024-01-11T02:06:05;102771.56;;;-5.46;72.89
81686;BME280;71102;50.960;6.888;2024-01-11T02:08:31;102770.69;;;-5.38;75.52
81686;BME280;71102;50.960;6.888;2024-01-11T02:10:58;102777.06;;;-5.34;76.03
81686;BME280;71102;50.960;6.888;2024-01-11T02:13:24;102779.06;;;-5.40;73.75
81686;BME280;71102;50.960;6.888;2024-01-11T02:15:50;102780.41;;;-5.44;74.01
81686;BME280;71102;50.960;6.888;2024-01-11T02:18:15;102775.38;;;-5.51;72.82
81686;BME280;71102;50.960;6.888;2024-01-11T02:20:40;102773.97;;;-5.56;73.31
81686;BME280;71102;50.960;6.888;2024-01-11T02:23:09;102773.88;;;-5.57;73.69
81686;BME280;71102;50.960;6.888;2024-01-11T02:25:37;102778.88;;;-5.59;73.42
81686;BME280;71102;50.960;6.888;2024-01-11T02:28:02;102771.56;;;-5.54;74.06
81686;BME280;71102;50.960;6.888;2024-01-11T02:30:28;102767.31;;;-5.54;73.60
81686;BME280;71102;50.960;6.888;2024-01-11T02:32:53;102770.34;;;-5.58;73.09
81686;BME280;71102;50.960;6.888;2024-01-11T02:35:19;102773.97;;;-5.56;73.94
81686;BME280;71102;50.960;6.888;2024-01-11T02:37:45;102763.94;;;-5.61;72.21
81686;BME280;71102;50.960;6.888;2024-01-11T02:40:12;102764.88;;;-5.61;73.13
81686;BME280;71102;50.960;6.888;2024-01-11T02:42:38;102769.72;;;-5.64;72.37
81686;BME280;71102;50.960;6.888;2024-01-11T02:45:04;102756.66;;;-5.65;72.61
81686;BME280;71102;50.960;6.888;2024-01-11T02:47:29;102751.03;;;-5.70;74.21
81686;BME280;71102;50.960;6.888;2024-01-11T02:49:55;102752.44;;;-5.65;74.10
81686;BME280;71102;50.960;6.888;2024-01-11T02:52:20;102745.44;;;-5.66;73.02
81686;BME280;71102;50.960;6.888;2024-01-11T02:54:45;102757.28;;;-5.68;72.62
81686;BME280;71102;50.960;6.888;2024-01-11T02:57:11;102761.50;;;-5.68;72.99
81686;BME280;71102;50.960;6.888;2024-01-11T02:59:36;102759.53;;;-5.71;73.32
81686;BME280;71102;50.960;6.888;2024-01-11T03:02:02;102769.09;;;-5.70;73.67
81686;BME280;71102;50.960;6.888;2024-01-11T03:04:27;102762.13;;;-5.71;72.76
81686;BME280;71102;50.960;6.888;2024-01-11T03:06:52;102763.34;;;-5.76;73.37
81686;BME280;71102;50.960;6.888;2024-01-11T03:09:17;102754.69;;;-5.68;76.03
81686;BME280;71102;50.960;6.888;2024-01-11T03:11:43;102749.06;;;-5.64;75.06
81686;BME280;71102;50.960;6.888;2024-01-11T03:14:08;102745.13;;;-5.69;74.29
81686;BME280;71102;50.960;6.888;2024-01-11T03:16:33;102746.63;;;-5.71;73.97
81686;BME280;71102;50.960;6.888;2024-01-11T03:18:59;102739.66;;;-5.72;73.89
81686;BME280;71102;50.960;6.888;2024-01-11T03:21:25;102737.22;;;-5.70;73.85
81686;BME280;71102;50.960;6.888;2024-01-11T03:23:50;102748.75;;;-5.67;75.27
81686;BME280;71102;50.960;6.888;2024-01-11T03:26:17;102748.03;;;-5.66;76.40
81686;BME280;71102;50.960;6.888;2024-01-11T03:28:43;102744.22;;;-5.61;76.46
81686;BME280;71102;50.960;6.888;2024-01-11T03:31:09;102743.91;;;-5.64;74.64
81686;BME280;71102;50.960;6.888;2024-01-11T03:33:35;102746.94;;;-5.68;74.38
81686;BME280;71102;50.960;6.888;2024-01-11T03:36:06;102745.44;;;-5.66;74.75
81686;BME280;71102;50.960;6.888;2024-01-11T03:38:32;102750.31;;;-5.69;74.18
81686;BME280;71102;50.960;6.888;2024-01-11T03:40:57;102745.56;;;-5.73;74.23
81686;BME280;71102;50.960;6.888;2024-01-11T03:43:22;102745.28;;;-5.76;74.17
81686;BME280;71102;50.960;6.888;2024-01-11T03:45:47;102749.19;;;-5.79;73.75
81686;BME280;71102;50.960;6.888;2024-01-11T03:48:13;102745.13;;;-5.86;73.57
81686;BME280;71102;50.960;6.888;2024-01-11T03:50:38;102748.28;;;-5.88;73.67
81686;BME280;71102;50.960;6.888;2024-01-11T03:53:03;102759.09;;;-5.84;74.38
81686;BME280;71102;50.960;6.888;2024-01-11T03:55:29;102757.72;;;-5.80;74.83
81686;BME280;71102;50.960;6.888;2024-01-11T03:57:54;102763.75;;;-5.80;74.46
81686;BME280;71102;50.960;6.888;2024-01-11T04:00:19;102759.09;;;-5.84;74.60
81686;BME280;71102;50.960;6.888;2024-01-11T04:02:45;102748.59;;;-5.85;74.77
81686;BME280;71102;50.960;6.888;2024-01-11T04:05:10;102750.31;;;-5.86;74.69
81686;BME280;71102;50.960;6.888;2024-01-11T04:07:35;102751.03;;;-5.87;74.34
81686;BME280;71102;50.960;6.888;2024-01-11T04:10:01;102748.44;;;-5.87;74.12
81686;BME280;71102;50.960;6.888;2024-01-11T04:12:26;102763.94;;;-5.87;74.01
81686;BME280;71102;50.960;6.888;2024-01-11T04:14:51;102770.03;;;-5.86;74.65
81686;BME280;71102;50.960;6.888;2024-01-11T04:17:17;102781.44;;;-5.84;74.63
81686;BME280;71102;50.960;6.888;2024-01-11T04:19:42;102784.91;;;-5.84;74.88
81686;BME280;71102;50.960;6.888;2024-01-11T04:22:08;102777.59;;;-5.88;74.63
81686;BME280;71102;50.960;6.888;2024-01-11T04:24:33;102779.25;;;-5.88;75.47
81686;BME280;71102;50.960;6.888;2024-01-11T04:26:58;102766.97;;;-5.91;74.58
81686;BME280;71102;50.960;6.888;2024-01-11T04:29:24;102778.81;;;-5.93;74.76
81686;BME280;71102;50.960;6.888;2024-01-11T04:31:49;102775.16;;;-5.95;74.59
81686;BME280;71102;50.960;6.888;2024-01-11T04:34:14;102778.81;;;-5.93;75.12
81686;BME280;71102;50.960;6.888;2024-01-11T04:36:40;102785.78;;;-5.92;74.80
81686;BME280;71102;50.960;6.888;2024-01-11T04:39:05;102795.78;;;-5.95;73.47
81686;BME280;71102;50.960;6.888;2024-01-11T04:41:30;102795.63;;;-5.96;74.03
81686;BME280;71102;50.960;6.888;2024-01-11T04:43:56;102801.41;;;-5.99;73.87
81686;BME280;71102;50.960;6.888;2024-01-11T04:46:22;102798.81;;;-5.99;73.61
81686;BME280;71102;50.960;6.888;2024-01-11T04:48:49;102796.97;;;-6.00;74.17
81686;BME280;71102;50.960;6.888;2024-01-11T04:51:16;102794.41;;;-6.00;74.40
81686;BME280;71102;50.960;6.888;2024-01-11T04:53:42;102803.22;;;-5.98;74.06
81686;BME280;71102;50.960;6.888;2024-01-11T04:56:10;102787.91;;;-5.96;75.10
81686;BME280;71102;50.960;6.888;2024-01-11T04:58:42;102788.50;;;-5.99;75.38
81686;BME280;71102;50.960;6.888;2024-01-11T05:01:15;102795.16;;;-6.01;74.72
81686;BME280;71102;50.960;6.888;2024-01-11T05:03:41;102806.69;;;-6.06;73.50
81686;BME280;71102;50.960;6.888;2024-01-11T05:06:06;102806.06;;;-6.12;73.36
81686;BME280;71102;50.960;6.888;2024-01-11T05:08:31;102797.81;;;-6.16;73.36
81686;BME280;71102;50.960;6.888;2024-01-11T05:10:57;102806.34;;;-6.17;73.49
81686;BME280;71102;50.960;6.888;2024-01-11T05:13:22;102805.56;;;-6.16;73.86
81686;BME280;71102;50.960;6.888;2024-01-11T05:15:48;102821.50;;;-6.20;73.05
81686;BME280;71102;50.960;6.888;2024-01-11T05:18:13;102805.84;;;-6.22;74.72
81686;BME280;71102;50.960;6.888;2024-01-11T05:20:39;102803.59;;;-6.19;75.26
81686;BME280;71102;50.960;6.888;2024-01-11T05:23:05;102804.53;;;-6.18;74.51
81686;BME280;71102;50.960;6.888;2024-01-11T05:25:31;102797.94;;;-6.23;74.88
81686;BME280;71102;50.960;6.888;2024-01-11T05:27:56;102812.09;;;-6.20;74.66
81686;BME280;71102;50.960;6.888;2024-01-11T05:30:21;102803.09;;;-6.23;74.78
81686;BME280;71102;50.960;6.888;2024-01-11T05:32:47;102797.31;;;-6.29;74.93
81686;BME280;71102;50.960;6.888;2024-01-11T05:35:12;102798.22;;;-6.29;75.14
81686;BME280;71102;50.960;6.888;2024-01-11T05:37:37;102810.97;;;-6.30;74.28
81686;BME280;71102;50.960;6.888;2024-01-11T05:40:03;102810.47;;;-6.35;74.16
81686;BME280;71102;50.960;6.888;2024-01-11T05:42:28;102810.16;;;-6.38;73.59
81686;BME280;71102;50.960;6.888;2024-01-11T05:44:54;102820.91;;;-6.42;73.48
81686;BME280;71102;50.960;6.888;2024-01-11T05:47:19;102823.75;;;-6.47;72.64
81686;BME280;71102;50.960;6.888;2024-01-11T05:49:44;102822.22;;;-6.54;73.33
81686;BME280;71102;50.960;6.888;2024-01-11T05:52:10;102842.50;;;-6.57;73.05
81686;BME280;71102;50.960;6.888;2024-01-11T05:54:35;102835.84;;;-6.55;74.39
81686;BME280;71102;50.960;6.888;2024-01-11T05:57:00;102840.44;;;-6.52;75.00
81686;BME280;71102;50.960;6.888;2024-01-11T05:59:26;102838.91;;;-6.50;74.58
81686;BME280;71102;50.960;6.888;2024-01-11T06:01:51;102833.16;;;-6.48;75.07
81686;BME280;71102;50.960;6.888;2024-01-11T06:04:17;102833.91;;;-6.49;74.24
81686;BME280;71102;50.960;6.888;2024-01-11T06:06:42;102834.34;;;-6.53;74.35
81686;BME280;71102;50.960;6.888;2024-01-11T06:09:08;102834.94;;;-6.55;73.13
81686;BME280;71102;50.960;6.888;2024-01-11T06:11:33;102845.81;;;-6.58;73.14
81686;BME280;71102;50.960;6.888;2024-01-11T06:13:59;102846.25;;;-6.62;73.06
81686;BME280;71102;50.960;6.888;2024-01-11T06:16:24;102847.34;;;-6.60;73.82
81686;BME280;71102;50.960;6.888;2024-01-11T06:18:50;102853.72;;;-6.56;74.21
81686;BME280;71102;50.960;6.888;2024-01-11T06:21:15;102849.47;;;-6.56;74.11
81686;BME280;71102;50.960;6.888;2024-01-11T06:23:41;102854.31;;;-6.59;73.81
81686;BME280;71102;50.960;6.888;2024-01-11T06:26:07;102857.97;;;-6.57;73.83
81686;BME280;71102;50.960;6.888;2024-01-11T06:28:33;102873.63;;;-6.55;73.35
81686;BME280;71102;50.960;6.888;2024-01-11T06:30:58;102863.88;;;-6.58;73.50
81686;BME280;71102;50.960;6.888;2024-01-11T06:33:23;102860.22;;;-6.60;73.76
81686;BME280;71102;50.960;6.888;2024-01-11T06:35:49;102860.06;;;-6.61;73.58
81686;BME280;71102;50.960;6.888;2024-01-11T06:38:14;102856.22;;;-6.65;73.80
81686;BME280;71102;50.960;6.888;2024-01-11T06:40:39;102855.91;;;-6.68;74.03
81686;BME280;71102;50.960;6.888;2024-01-11T06:43:05;102857.31;;;-6.63;75.44
81686;BME280;71102;50.960;6.888;2024-01-11T06:45:30;102869.78;;;-6.59;74.01
81686;BME280;71102;50.960;6.888;2024-01-11T06:47:55;102875.53;;;-6.61;73.33
81686;BME280;71102;50.960;6.888;2024-01-11T06:50:21;102874.59;;;-6.62;74.28
81686;BME280;71102;50.960;6.888;2024-01-11T06:52:46;102866.88;;;-6.62;74.42
81686;BME280;71102;50.960;6.888;2024-01-11T06:55:11;102864.88;;;-6.64;73.88
81686;BME280;71102;50.960;6.888;2024-01-11T06:57:37;102869.72;;;-6.67;74.01
81686;BME280;71102;50.960;6.888;2024-01-11T07:00:02;102859.66;;;-6.73;73.27
81686;BME280;71102;50.960;6.888;2024-01-11T07:02:27;102862.84;;;-6.75;73.76
81686;BME280;71102;50.960;6.888;2024-01-11T07:04:53;102870.41;;;-6.77;73.92
81686;BME280;71102;50.960;6.888;2024-01-11T07:07:18;102869.47;;;-6.77;74.67
81686;BME280;71102;50.960;6.888;2024-01-11T07:09:44;102863.34;;;-6.71;76.27
81686;BME280;71102;50.960;6.888;2024-01-11T07:12:09;102870.53;;;-6.60;76.39
81686;BME280;71102;50.960;6.888;2024-01-11T07:14:35;102871.50;;;-6.51;75.62
81686;BME280;71102;50.960;6.888;2024-01-11T07:17:00;102865.59;;;-6.50;75.83
81686;BME280;71102;50.960;6.888;2024-01-11T07:19:26;102858.38;;;-6.45;75.11
81686;BME280;71102;50.960;6.888;2024-01-11T07:21:51;102862.31;;;-6.40;76.06
81686;BME280;71102;50.960;6.888;2024-01-11T07:24:16;102875.22;;;-6.40;75.15
81686;BME280;71102;50.960;6.888;2024-01-11T07:26:42;102872.16;;;-6.45;74.42
81686;BME280;71102;50.960;6.888;2024-01-11T07:29:07;102858.03;;;-6.48;74.74
81686;BME280;71102;50.960;6.888;2024-01-11T07:31:32;102862.09;;;-6.50;74.18
81686;BME280;71102;50.960;6.888;2024-01-11T07:33:58;102861.28;;;-6.58;74.34
81686;BME280;71102;50.960;6.888;2024-01-11T07:36:23;102868.69;;;-6.61;73.85
81686;BME280;71102;50.960;6.888;2024-01-11T07:38:48;102878.28;;;-6.60;74.77
81686;BME280;71102;50.960;6.888;2024-01-11T07:41:14;102897.72;;;-6.55;73.86
81686;BME280;71102;50.960;6.888;2024-01-11T07:43:40;102898.03;;;-6.52;74.23
81686;BME280;71102;50.960;6.888;2024-01-11T07:46:05;102911.69;;;-6.53;74.11
81686;BME280;71102;50.960;6.888;2024-01-11T07:48:30;102911.84;;;-6.51;75.35
81686;BME280;71102;50.960;6.888;2024-01-11T07:50:56;102923.88;;;-6.43;78.24
81686;BME280;71102;50.960;6.888;2024-01-11T07:53:21;102920.38;;;-6.28;78.63
81686;BME280;71102;50.960;6.888;2024-01-11T07:55:46;102926.22;;;-6.14;78.25
81686;BME280;71102;50.960;6.888;2024-01-11T07:58:12;102935.69;;;-6.06;77.91
81686;BME280;71102;50.960;6.888;2024-01-11T08:00:37;102938.81;;;-5.93;76.81
81686;BME280;71102;50.960;6.888;2024-01-11T08:03:02;102925.34;;;-5.82;77.12
81686;BME280;71102;50.960;6.888;2024-01-11T08:05:28;102938.00;;;-5.68;77.52
81686;BME280;71102;50.960;6.888;2024-01-11T08:07:53;102940.78;;;-5.58;77.49
81686;BME280;71102;50.960;6.888;2024-01-11T08:10:18;102937.59;;;-5.55;75.72
81686;BME280;71102;50.960;6.888;2024-01-11T08:12:44;102937.75;;;-5.54;76.12
81686;BME280;71102;50.960;6.888;2024-01-11T08:15:09;102934.56;;;-5.51;74.95
81686;BME280;71102;50.960;6.888;2024-01-11T08:17:34;102928.63;;;-5.59;73.52
81686;BME280;71102;50.960;6.888;2024-01-11T08:20:00;102929.66;;;-5.65;72.89
81686;BME280;71102;50.960;6.888;2024-01-11T08:22:25;102923.69;;;-5.73;73.09
81686;BME280;71102;50.960;6.888;2024-01-11T08:24:50;102935.03;;;-5.79;72.84
81686;BME280;71102;50.960;6.888;2024-01-11T08:27:16;102940.69;;;-5.83;72.78
81686;BME280;71102;50.960;6.888;2024-01-11T08:29:41;102929.44;;;-5.84;73.95
81686;BME280;71102;50.960;6.888;2024-01-11T08:32:06;102920.03;;;-5.83;73.26
81686;BME280;71102;50.960;6.888;2024-01-11T08:34:32;102924.88;;;-5.86;72.94
81686;BME280;71102;50.960;6.888;2024-01-11T08:36:57;102918.97;;;-5.77;76.30
81686;BME280;71102;50.960;6.888;2024-01-11T08:39:22;102919.91;;;-5.68;75.97
81686;BME280;71102;50.960;6.888;2024-01-11T08:41:48;102914.97;;;-5.58;75.63
81686;BME280;71102;50.960;6.888;2024-01-11T08:44:13;102910.75;;;-5.49;75.66
81686;BME280;71102;50.960;6.888;2024-01-11T08:46:38;102914.41;;;-5.38;76.57
81686;BME280;71102;50.960;6.888;2024-01-11T08:49:04;102913.06;;;-5.34;75.92
81686;BME280;71102;50.960;6.888;2024-01-11T08:51:29;102916.53;;;-5.34;74.83
81686;BME280;71102;50.960;6.888;2024-01-11T08:53:55;102925.66;;;-5.38;75.97
81686;BME280;71102;50.960;6.888;2024-01-11T08:56:21;102923.09;;;-5.38;75.45
81686;BME280;71102;50.960;6.888;2024-01-11T08:58:46;102917.03;;;-5.29;77.94
81686;BME280;71102;50.960;6.888;2024-01-11T09:01:12;102923.00;;;-5.13;78.81
81686;BME280;71102;50.960;6.888;2024-01-11T09:03:37;102914.50;;;-5.04;79.14
81686;BME280;71102;50.960;6.888;2024-01-11T09:06:03;102916.47;;;-4.93;78.24
81686;BME280;71102;50.960;6.888;2024-01-11T09:08:29;102928.69;;;-4.83;77.50
81686;BME280;71102;50.960;6.888;2024-01-11T09:10:55;102928.84;;;-4.82;76.69
81686;BME280;71102;50.960;6.888;2024-01-11T09:13:21;102937.03;;;-4.77;76.58
81686;BME280;71102;50.960;6.888;2024-01-11T09:15:46;102928.22;;;-4.79;75.59
81686;BME280;71102;50.960;6.888;2024-01-11T09:18:11;102939.63;;;-4.77;75.41
81686;BME280;71102;50.960;6.888;2024-01-11T09:20:37;102937.03;;;-4.77;75.50
81686;BME280;71102;50.960;6.888;2024-01-11T09:23:02;102941.78;;;-4.73;75.59
81686;BME280;71102;50.960;6.888;2024-01-11T09:25:28;102939.63;;;-4.69;75.86
81686;BME280;71102;50.960;6.888;2024-01-11T09:27:53;102936.63;;;-4.56;77.43
81686;BME280;71102;50.960;6.888;2024-01-11T09:30:18;102928.84;;;-4.48;76.79
81686;BME280;71102;50.960;6.888;2024-01-11T09:32:44;102938.59;;;-4.37;77.59
81686;BME280;71102;50.960;6.888;2024-01-11T09:35:09;102937.06;;;-4.26;77.19
81686;BME280;71102;50.960;6.888;2024-01-11T09:37:34;102943.59;;;-4.21;76.30
81686;BME280;71102;50.960;6.888;2024-01-11T09:40:00;102955.47;;;-4.23;75.66
81686;BME280;71102;50.960;6.888;2024-01-11T09:42:25;102954.25;;;-4.18;76.07
81686;BME280;71102;50.960;6.888;2024-01-11T09:44:51;102952.13;;;-4.14;75.94
81686;BME280;71102;50.960;6.888;2024-01-11T09:47:17;102955.03;;;-4.11;75.42
81686;BME280;71102;50.960;6.888;2024-01-11T09:49:48;102959.56;;;-4.08;75.20
81686;BME280;71102;50.960;6.888;2024-01-11T09:52:15;102957.44;;;-4.04;76.25
81686;BME280;71102;50.960;6.888;2024-01-11T09:54:40;102955.88;;;-3.93;76.83
81686;BME280;71102;50.960;6.888;2024-01-11T09:57:07;102961.97;;;-3.84;76.80
81686;BME280;71102;50.960;6.888;2024-01-11T09:59:35;102964.09;;;-3.80;76.26
81686;BME280;71102;50.960;6.888;2024-01-11T10:02:01;102965.56;;;-3.74;75.38
81686;BME280;71102;50.960;6.888;2024-01-11T10:04:26;102967.09;;;-3.67;75.72
81686;BME280;71102;50.960;6.888;2024-01-11T10:06:53;102955.34;;;-3.64;75.10
81686;BME280;71102;50.960;6.888;2024-01-11T10:09:19;102976.66;;;-3.58;75.35
81686;BME280;71102;50.960;6.888;2024-01-11T10:11:44;102973.75;;;-3.52;75.76
81686;BME280;71102;50.960;6.888;2024-01-11T10:14:12;102959.09;;;-3.43;76.94
81686;BME280;71102;50.960;6.888;2024-01-11T10:16:37;102975.84;;;-3.31;76.90
81686;BME280;71102;50.960;6.888;2024-01-11T10:19:03;102971.03;;;-3.18;75.83
81686;BME280;71102;50.960;6.888;2024-01-11T10:21:28;102967.78;;;-3.07;75.64
81686;BME280;71102;50.960;6.888;2024-01-11T10:23:53;102962.56;;;-2.99;75.83
81686;BME280;71102;50.960;6.888;2024-01-11T10:26:19;102955.75;;;-2.88;75.59
81686;BME280;71102;50.960;6.888;2024-01-11T10:28:44;102954.81;;;-2.80;75.80
81686;BME280;71102;50.960;6.888;2024-01-11T10:31:10;102953.97;;;-2.71;75.27
81686;BME280;71102;50.960;6.888;2024-01-11T10:33:36;102949.16;;;-2.57;74.86
81686;BME280;71102;50.960;6.888;2024-01-11T10:36:01;102945.44;;;-2.51;74.48
81686;BME280;71102;50.960;6.888;2024-01-11T10:38:29;102949.16;;;-2.57;75.86
81686;BME280;71102;50.960;6.888;2024-01-11T10:40:55;102943.69;;;-2.60;75.77
81686;BME280;71102;50.960;6.888;2024-01-11T10:43:23;102949.09;;;-2.49;75.89
81686;BME280;71102;50.960;6.888;2024-01-11T10:45:51;102945.16;;;-2.35;75.33
81686;BME280;71102;50.960;6.888;2024-01-11T10:48:17;102949.75;;;-2.23;74.59
81686;BME280;71102;50.960;6.888;2024-01-11T10:50:46;102947.22;;;-2.13;74.00
81686;BME280;71102;50.960;6.888;2024-01-11T10:55:46;102936.00;;;-2.03;74.77
81686;BME280;71102;50.960;6.888;2024-01-11T10:58:13;102934.59;;;-2.00;75.03
81686;BME280;71102;50.960;6.888;2024-01-11T11:00:39;102943.63;;;-1.86;73.76
81686;BME280;71102;50.960;6.888;2024-01-11T11:03:05;102945.84;;;-1.81;73.63
81686;BME280;71102;50.960;6.888;2024-01-11T11:05:31;102958.06;;;-1.80;72.85
81686;BME280;71102;50.960;6.888;2024-01-11T11:07:58;102959.63;;;-1.72;74.31
81686;BME280;71102;50.960;6.888;2024-01-11T11:10:27;102964.41;;;-1.58;73.60
81686;BME280;71102;50.960;6.888;2024-01-11T11:12:54;102969.13;;;-1.44;72.50
81686;BME280;71102;50.960;6.888;2024-01-11T11:15:19;102958.91;;;-1.32;72.91
81686;BME280;71102;50.960;6.888;2024-01-11T11:17:45;102958.00;;;-1.23;72.17
81686;BME280;71102;50.960;6.888;2024-01-11T11:20:11;102968.69;;;-1.10;72.04
81686;BME280;71102;50.960;6.888;2024-01-11T11:22:37;102971.31;;;-1.00;72.43
81686;BME280;71102;50.960;6.888;2024-01-11T11:25:07;102974.94;;;-0.98;72.62
81686;BME280;71102;50.960;6.888;2024-01-11T11:27:33;102961.41;;;-0.94;72.48
81686;BME280;71102;50.960;6.888;2024-01-11T11:29:58;102963.41;;;-0.81;71.63
81686;BME280;71102;50.960;6.888;2024-01-11T11:32:37;102960.91;;;-1.10;71.62
81686;BME280;71102;50.960;6.888;2024-01-11T11:35:06;102964.28;;;-0.91;71.43
81686;BME280;71102;50.960;6.888;2024-01-11T11:37:31;102960.91;;;-1.10;70.49
81686;BME280;71102;50.960;6.888;2024-01-11T11:39:57;102941.78;;;-0.90;70.75
81686;BME280;71102;50.960;6.888;2024-01-11T11:42:23;102940.59;;;-0.94;70.40
81686;BME280;71102;50.960;6.888;2024-01-11T11:44:50;102930.06;;;-0.85;70.10
81686;BME280;71102;50.960;6.888;2024-01-11T11:47:21;102926.06;;;-0.82;70.42
81686;BME280;71102;50.960;6.888;2024-01-11T11:50:09;102928.00;;;-0.69;69.99
81686;BME280;71102;50.960;6.888;2024-01-11T11:52:37;102934.88;;;-0.60;70.36
81686;BME280;71102;50.960;6.888;2024-01-11T11:55:03;102940.06;;;-0.40;69.62
81686;BME280;71102;50.960;6.888;2024-01-11T11:57:30;102936.81;;;-0.27;69.93
81686;BME280;71102;50.960;6.888;2024-01-11T11:59:58;102937.44;;;-0.30;70.05
81686;BME280;71102;50.960;6.888;2024-01-11T12:02:25;102954.13;;;-0.28;70.28
81686;BME280;71102;50.960;6.888;2024-01-11T12:04:52;102951.22;;;-0.11;69.82
81686;BME280;71102;50.960;6.888;2024-01-11T12:07:17;102949.78;;;-0.07;69.50
81686;BME280;71102;50.960;6.888;2024-01-11T12:09:43;102951.56;;;0.14;69.07
81686;BME280;71102;50.960;6.888;2024-01-11T12:12:08;102942.56;;;0.11;68.15
81686;BME280;71102;50.960;6.888;2024-01-11T12:14:35;102937.03;;;0.28;68.14
81686;BME280;71102;50.960;6.888;2024-01-11T12:17:00;102928.56;;;0.52;67.61
81686;BME280;71102;50.960;6.888;2024-01-11T12:19:25;102922.63;;;0.86;67.60
81686;BME280;71102;50.960;6.888;2024-01-11T12:21:51;102928.63;;;0.85;66.08
81686;BME280;71102;50.960;6.888;2024-01-11T12:24:16;102921.53;;;0.94;65.54
81686;BME280;71102;50.960;6.888;2024-01-11T12:26:42;102926.56;;;1.14;66.23
81686;BME280;71102;50.960;6.888;2024-01-11T12:29:08;102916.84;;;1.23;64.46
81686;BME280;71102;50.960;6.888;2024-01-11T12:31:34;102918.16;;;1.06;64.75
81686;BME280;71102;50.960;6.888;2024-01-11T12:34:00;102910.66;;;0.99;64.92
81686;BME280;71102;50.960;6.888;2024-01-11T12:36:26;102901.88;;;0.66;65.02
81686;BME280;71102;50.960;6.888;2024-01-11T12:38:51;102886.72;;;0.72;65.44
81686;BME280;71102;50.960;6.888;2024-01-11T12:41:17;102887.31;;;0.58;65.15
81686;BME280;71102;50.960;6.888;2024-01-11T12:43:43;102888.44;;;0.50;65.29
81686;BME280;71102;50.960;6.888;2024-01-11T12:46:08;102878.00;;;0.83;64.73